createdAt,value
2019-04-04T00:00:59.352Z,7.96
2019-04-04T00:02:00.919Z,7.90
2019-04-04T00:03:01.343Z,7.95
2019-04-04T00:04:01.941Z,7.95
2019-04-04T00:05:02.364Z,7.96
2019-04-04T00:06:05.012Z,7.95
2019-04-04T00:07:05.748Z,7.85
2019-04-04T00:08:06.351Z,7.91
2019-04-04T00:09:06.779Z,7.81
2019-04-04T00:10:07.406Z,7.83
2019-04-04T00:11:07.872Z,7.84
2019-04-04T00:12:08.711Z,7.81
2019-04-04T00:13:11.028Z,7.84
2019-04-04T00:14:12.974Z,7.81
2019-04-04T00:15:14.917Z,7.78
2019-04-04T00:16:16.608Z,7.81
2019-04-04T00:17:17.223Z,7.81
2019-04-04T00:18:17.641Z,7.77
2019-04-04T00:19:18.067Z,7.80
2019-04-04T00:20:18.486Z,7.83
2019-04-04T00:21:18.910Z,7.78
2019-04-04T00:22:19.361Z,7.78
2019-04-04T00:23:19.782Z,7.75
2019-04-04T00:24:20.226Z,7.72
2019-04-04T00:25:20.639Z,7.74
2019-04-04T00:26:21.053Z,7.69
2019-04-04T00:27:21.480Z,7.75
2019-04-04T00:28:21.895Z,7.70
2019-04-04T00:29:22.319Z,7.67
2019-04-04T00:30:22.754Z,7.61
2019-04-04T00:31:23.189Z,7.64
2019-04-04T00:32:23.636Z,7.75
2019-04-04T00:33:25.825Z,7.59
2019-04-04T00:34:28.134Z,7.62
2019-04-04T00:35:31.099Z,7.62
2019-04-04T00:36:34.128Z,7.62
2019-04-04T00:37:36.096Z,7.66
2019-04-04T00:38:38.083Z,7.69
2019-04-04T00:39:39.903Z,7.58
2019-04-04T00:40:41.962Z,7.62
2019-04-04T00:41:42.969Z,7.66
2019-04-04T00:42:45.901Z,7.70
2019-04-04T00:43:48.114Z,7.72
2019-04-04T00:44:48.538Z,7.70
2019-04-04T00:45:48.955Z,7.72
2019-04-04T00:46:51.542Z,7.70
2019-04-04T00:47:51.997Z,7.66
2019-04-04T00:48:52.489Z,7.69
2019-04-04T00:49:53.101Z,7.67
2019-04-04T00:50:53.521Z,7.69
2019-04-04T00:51:54.143Z,7.67
2019-04-04T00:52:54.575Z,7.72
2019-04-04T00:53:56.208Z,7.74
2019-04-04T00:54:56.628Z,7.70
2019-04-04T00:55:57.249Z,7.70
2019-04-04T00:56:57.666Z,7.69
2019-04-04T00:57:58.207Z,7.66
2019-04-04T00:58:58.631Z,7.80
2019-04-04T00:59:59.047Z,7.67
2019-04-04T01:00:59.640Z,7.85
2019-04-04T01:02:00.075Z,7.81
2019-04-04T01:03:01.626Z,7.85
2019-04-04T01:04:02.059Z,7.81
2019-04-04T01:05:02.634Z,7.77
2019-04-04T01:06:03.740Z,7.78
2019-04-04T01:07:05.036Z,7.81
2019-04-04T01:08:07.039Z,7.80
2019-04-04T01:09:11.639Z,7.67
2019-04-04T01:10:14.378Z,7.81
2019-04-04T01:11:14.839Z,7.78
2019-04-04T01:12:15.449Z,7.80
2019-04-04T01:13:15.875Z,7.78
2019-04-04T01:14:16.288Z,7.78
2019-04-04T01:15:16.713Z,7.78
2019-04-04T01:16:17.137Z,7.83
2019-04-04T01:17:17.669Z,7.78
2019-04-04T01:18:18.121Z,7.74
2019-04-04T01:19:18.539Z,7.78
2019-04-04T01:20:20.407Z,7.77
2019-04-04T01:21:22.156Z,7.77
2019-04-04T01:22:25.006Z,7.74
2019-04-04T01:23:27.115Z,7.72
2019-04-04T01:24:29.129Z,7.72
2019-04-04T01:25:32.684Z,7.78
2019-04-04T01:26:35.184Z,7.69
2019-04-04T01:27:36.896Z,7.81
2019-04-04T01:28:39.099Z,7.77
2019-04-04T01:29:40.882Z,7.78
2019-04-04T01:30:43.699Z,7.78
2019-04-04T01:31:46.031Z,7.81
2019-04-04T01:32:48.164Z,7.78
2019-04-04T01:33:51.561Z,7.78
2019-04-04T01:34:52.743Z,7.84
2019-04-04T01:35:53.983Z,7.75
2019-04-04T01:36:56.459Z,7.81
2019-04-04T01:37:58.249Z,7.85
2019-04-04T01:39:00.179Z,7.85
2019-04-04T01:40:02.230Z,7.80
2019-04-04T01:41:04.456Z,7.78
2019-04-04T01:42:07.144Z,7.78
2019-04-04T01:43:09.237Z,7.81
2019-04-04T01:44:11.388Z,7.81
2019-04-04T01:45:13.193Z,7.81
2019-04-04T01:46:15.264Z,7.80
2019-04-04T01:47:16.962Z,7.67
2019-04-04T01:48:18.763Z,7.74
2019-04-04T01:49:21.236Z,7.67
2019-04-04T01:50:22.829Z,7.69
2019-04-04T01:51:25.373Z,7.74
2019-04-04T01:52:28.652Z,7.69
2019-04-04T01:53:30.153Z,7.70
2019-04-04T01:54:32.028Z,7.67
2019-04-04T01:55:35.082Z,7.66
2019-04-04T01:56:37.029Z,7.69
2019-04-04T01:57:38.929Z,7.66
2019-04-04T01:58:41.854Z,7.64
2019-04-04T01:59:43.937Z,7.58
2019-04-04T02:00:46.071Z,7.61
2019-04-04T02:01:47.431Z,7.66
2019-04-04T02:02:47.892Z,7.61
2019-04-04T02:03:48.486Z,7.66
2019-04-04T02:04:48.914Z,7.69
2019-04-04T02:05:51.393Z,7.56
2019-04-04T02:06:51.843Z,7.61
2019-04-04T02:07:53.351Z,7.58
2019-04-04T02:08:53.923Z,7.55
2019-04-04T02:09:56.437Z,7.51
2019-04-04T02:10:57.194Z,7.56
2019-04-04T02:11:59.829Z,7.51
2019-04-04T02:13:00.242Z,7.44
2019-04-04T02:14:00.808Z,7.48
2019-04-04T02:15:01.232Z,7.51
2019-04-04T02:16:03.755Z,7.44
2019-04-04T02:17:04.212Z,7.43
2019-04-04T02:18:05.708Z,7.43
2019-04-04T02:19:06.220Z,7.31
2019-04-04T02:20:08.794Z,7.32
2019-04-04T02:21:09.218Z,7.26
2019-04-04T02:22:26.525Z,7.26
2019-04-04T02:23:26.960Z,7.37
2019-04-04T02:24:29.836Z,7.29
2019-04-04T02:25:34.156Z,7.40
2019-04-04T02:26:36.151Z,7.32
2019-04-04T02:27:37.988Z,7.36
2019-04-04T02:28:39.983Z,7.25
2019-04-04T02:29:41.870Z,7.25
2019-04-04T02:30:48.175Z,7.19
2019-04-04T02:31:53.088Z,7.21
2019-04-04T02:32:59.376Z,7.15
2019-04-04T02:34:05.321Z,7.08
2019-04-04T02:35:10.293Z,7.13
2019-04-04T02:36:11.068Z,7.11
2019-04-04T02:37:21.346Z,7.04
2019-04-04T02:38:27.050Z,6.95
2019-04-04T02:40:44.982Z,6.93
2019-04-04T02:41:48.178Z,6.93
2019-04-04T02:42:54.138Z,6.89
2019-04-04T02:44:11.501Z,6.83
2019-04-04T02:45:11.921Z,6.82
2019-04-04T02:46:19.978Z,6.82
2019-04-04T02:47:20.393Z,6.78
2019-04-04T02:48:27.571Z,6.82
2019-04-04T02:49:29.388Z,6.80
2019-04-04T02:50:34.372Z,6.78
2019-04-04T02:51:40.247Z,6.75
2019-04-04T02:52:50.023Z,6.74
2019-04-04T02:53:52.875Z,6.75
2019-04-04T02:54:58.575Z,6.77
2019-04-04T02:56:02.266Z,6.75
2019-04-04T02:57:07.974Z,6.74
2019-04-04T02:58:08.864Z,6.65
2019-04-04T02:59:20.147Z,6.72
2019-04-04T03:00:26.194Z,6.70
2019-04-04T03:01:31.769Z,6.78
2019-04-04T03:02:36.144Z,6.71
2019-04-04T03:03:45.041Z,6.72
2019-04-04T03:04:46.892Z,6.75
2019-04-04T03:05:56.461Z,6.68
2019-04-04T03:06:58.470Z,6.68
2019-04-04T03:08:04.245Z,6.71
2019-04-04T03:09:09.038Z,6.68
2019-04-04T03:10:15.051Z,6.70
2019-04-04T03:11:21.264Z,6.67
2019-04-04T03:12:26.129Z,6.62
2019-04-04T03:13:31.154Z,6.64
2019-04-04T03:14:37.922Z,6.62
2019-04-04T03:15:41.289Z,6.64
2019-04-04T03:17:57.326Z,6.65
2019-04-04T03:18:59.832Z,6.67
2019-04-04T03:20:00.298Z,6.74
2019-04-04T03:21:00.725Z,6.68
2019-04-04T03:22:01.161Z,6.64
2019-04-04T03:23:01.673Z,6.68
2019-04-04T03:24:05.842Z,6.67
2019-04-04T03:25:06.835Z,6.60
2019-04-04T03:26:07.268Z,6.67
2019-04-04T03:27:07.701Z,6.65
2019-04-04T03:28:08.125Z,6.65
2019-04-04T03:29:10.692Z,6.64
2019-04-04T03:30:14.882Z,6.68
2019-04-04T03:31:17.731Z,6.60
2019-04-04T03:32:18.166Z,6.65
2019-04-04T03:33:18.602Z,6.64
2019-04-04T03:34:19.062Z,6.65
2019-04-04T03:35:25.768Z,6.59
2019-04-04T03:36:25.878Z,6.50
2019-04-04T03:37:26.307Z,6.50
2019-04-04T03:38:26.738Z,6.44
2019-04-04T03:39:27.237Z,6.52
2019-04-04T03:40:27.656Z,6.54
2019-04-04T03:41:30.312Z,6.50
2019-04-04T03:42:34.529Z,6.52
2019-04-04T03:43:34.949Z,6.56
2019-04-04T03:44:35.394Z,6.54
2019-04-04T03:45:35.828Z,6.44
2019-04-04T03:46:38.824Z,6.49
2019-04-04T03:47:43.398Z,6.56
2019-04-04T03:48:44.850Z,6.59
2019-04-04T03:49:45.306Z,6.64
2019-04-04T03:50:45.762Z,6.60
2019-04-04T03:51:46.191Z,6.64
2019-04-04T03:52:46.626Z,6.62
2019-04-04T03:53:49.480Z,6.62
2019-04-04T03:54:55.238Z,6.49
2019-04-04T03:56:00.219Z,6.56
2019-04-04T03:57:01.641Z,6.47
2019-04-04T03:58:02.066Z,6.47
2019-04-04T03:59:02.574Z,6.49
2019-04-04T04:00:05.619Z,6.44
2019-04-04T04:01:11.796Z,6.43
2019-04-04T04:02:17.862Z,6.41
2019-04-04T04:03:22.237Z,6.39
2019-04-04T04:04:26.828Z,6.41
2019-04-04T04:05:33.933Z,6.36
2019-04-04T04:06:36.239Z,6.41
2019-04-04T04:07:36.708Z,6.41
2019-04-04T04:08:37.179Z,6.43
2019-04-04T04:09:37.614Z,6.35
2019-04-04T04:10:38.049Z,6.32
2019-04-04T04:11:38.506Z,6.29
2019-04-04T04:12:42.686Z,6.26
2019-04-04T04:13:43.618Z,6.26
2019-04-04T04:14:44.080Z,6.25
2019-04-04T04:15:44.497Z,6.17
2019-04-04T04:16:44.927Z,6.26
2019-04-04T04:17:46.394Z,6.19
2019-04-04T04:18:46.987Z,6.22
2019-04-04T04:19:47.421Z,6.34
2019-04-04T04:20:47.841Z,6.32
2019-04-04T04:21:48.261Z,6.22
2019-04-04T04:22:51.067Z,6.20
2019-04-04T04:23:56.162Z,6.10
2019-04-04T04:25:02.149Z,6.20
2019-04-04T04:26:08.021Z,6.10
2019-04-04T04:27:14.362Z,6.09
2019-04-04T04:28:19.702Z,6.16
2019-04-04T04:29:21.138Z,6.10
2019-04-04T04:30:21.583Z,6.07
2019-04-04T04:31:22.008Z,6.15
2019-04-04T04:32:22.808Z,6.10
2019-04-04T04:33:23.320Z,6.13
2019-04-04T04:34:23.904Z,6.10
2019-04-04T04:35:24.339Z,6.09
2019-04-04T04:36:24.841Z,6.06
2019-04-04T04:37:25.281Z,5.97
2019-04-04T04:38:27.111Z,6.07
2019-04-04T04:39:27.646Z,6.06
2019-04-04T04:40:28.087Z,6.16
2019-04-04T04:41:28.692Z,6.15
2019-04-04T04:42:29.142Z,6.09
2019-04-04T04:43:32.376Z,6.12
2019-04-04T04:44:37.853Z,6.16
2019-04-04T04:45:39.120Z,6.16
2019-04-04T04:46:39.548Z,6.19
2019-04-04T04:47:39.981Z,6.22
2019-04-04T04:48:40.461Z,6.26
2019-04-04T04:49:40.924Z,6.13
2019-04-04T04:50:41.366Z,6.10
2019-04-04T04:51:44.168Z,6.19
2019-04-04T04:52:47.392Z,6.19
2019-04-04T04:53:48.242Z,6.17
2019-04-04T04:54:52.305Z,6.22
2019-04-04T04:55:55.021Z,6.16
2019-04-04T04:56:55.439Z,6.17
2019-04-04T04:57:56.544Z,6.17
2019-04-04T04:58:57.184Z,6.16
2019-04-04T04:59:57.621Z,6.22
2019-04-04T05:00:58.051Z,6.26
2019-04-04T05:01:58.478Z,6.29
2019-04-04T05:02:58.907Z,6.28
2019-04-04T05:04:02.310Z,6.22
2019-04-04T05:05:03.048Z,6.13
2019-04-04T05:06:03.543Z,6.25
2019-04-04T05:07:07.069Z,6.15
2019-04-04T05:08:10.049Z,6.12
2019-04-04T05:09:13.784Z,6.06
2019-04-04T05:10:15.032Z,6.10
2019-04-04T05:11:16.864Z,6.07
2019-04-04T05:12:21.692Z,6.09
2019-04-04T05:13:24.557Z,6.07
2019-04-04T05:14:25.857Z,6.10
2019-04-04T05:15:26.331Z,6.10
2019-04-04T05:16:26.778Z,6.10
2019-04-04T05:17:27.443Z,6.25
2019-04-04T05:18:27.872Z,6.09
2019-04-04T05:19:29.405Z,6.09
2019-04-04T05:20:29.993Z,6.16
2019-04-04T05:21:33.736Z,6.15
2019-04-04T05:22:34.963Z,6.20
2019-04-04T05:23:35.384Z,6.13
2019-04-04T05:24:35.799Z,6.28
2019-04-04T05:25:49.704Z,6.28
2019-04-04T05:26:42.973Z,6.26
2019-04-04T05:27:43.509Z,6.39
2019-04-04T05:28:44.216Z,6.38
2019-04-04T05:29:44.901Z,6.36
2019-04-04T05:30:47.178Z,6.41
2019-04-04T05:31:50.051Z,6.39
2019-04-04T05:32:52.415Z,6.43
2019-04-04T05:33:59.045Z,6.44
2019-04-04T05:35:01.254Z,6.44
2019-04-04T05:36:04.834Z,6.44
2019-04-04T05:37:07.293Z,6.52
2019-04-04T05:38:12.102Z,6.50
2019-04-04T05:39:12.843Z,6.64
2019-04-04T05:40:13.260Z,6.64
2019-04-04T05:41:16.276Z,6.68
2019-04-04T05:42:17.116Z,6.72
2019-04-04T05:43:55.845Z,6.77
2019-04-04T05:44:56.271Z,6.77
2019-04-04T05:46:04.395Z,6.82
2019-04-04T05:47:04.816Z,6.80
2019-04-04T05:48:05.331Z,6.93
2019-04-04T05:49:07.747Z,6.89
2019-04-04T05:50:11.043Z,6.93
2019-04-04T05:51:31.870Z,6.96
2019-04-04T05:52:32.598Z,6.96
2019-04-04T05:53:35.414Z,7.00
2019-04-04T05:54:38.772Z,6.87
2019-04-04T05:55:39.834Z,7.03
2019-04-04T05:56:44.496Z,7.03
2019-04-04T05:57:45.271Z,6.97
2019-04-04T05:58:45.701Z,6.96
2019-04-04T05:59:46.139Z,6.96
2019-04-04T06:00:46.894Z,7.03
2019-04-04T06:01:47.371Z,7.03
2019-04-04T06:02:47.944Z,6.97
2019-04-04T06:03:48.408Z,7.01
2019-04-04T06:04:50.674Z,7.08
2019-04-04T06:05:52.078Z,7.03
2019-04-04T06:06:55.431Z,7.00
2019-04-04T06:07:56.250Z,7.01
2019-04-04T06:08:56.675Z,7.05
2019-04-04T06:09:57.192Z,7.05
2019-04-04T06:10:57.670Z,7.08
2019-04-04T06:11:58.107Z,7.18
2019-04-04T06:12:59.709Z,7.14
2019-04-04T06:14:00.132Z,7.08
2019-04-04T06:15:01.179Z,7.14
2019-04-04T06:16:02.084Z,7.15
2019-04-04T06:17:05.113Z,7.22
2019-04-04T06:18:11.017Z,7.19
2019-04-04T06:19:14.844Z,7.19
2019-04-04T06:20:15.665Z,7.21
2019-04-04T06:21:18.559Z,7.15
2019-04-04T06:22:21.186Z,7.25
2019-04-04T06:23:23.112Z,7.26
2019-04-04T06:24:27.299Z,7.22
2019-04-04T06:25:28.367Z,7.28
2019-04-04T06:26:31.585Z,7.29
2019-04-04T06:27:32.003Z,7.28
2019-04-04T06:28:32.449Z,7.32
2019-04-04T06:29:32.880Z,7.26
2019-04-04T06:30:43.004Z,7.43
2019-04-04T06:31:39.704Z,7.44
2019-04-04T06:32:40.133Z,7.47
2019-04-04T06:33:40.565Z,7.48
2019-04-04T06:34:42.145Z,7.50
2019-04-04T06:35:46.944Z,7.58
2019-04-04T06:36:49.107Z,7.51
2019-04-04T06:37:51.333Z,7.53
2019-04-04T06:38:53.961Z,7.62
2019-04-04T06:39:58.572Z,7.55
2019-04-04T06:41:00.955Z,7.58
2019-04-04T06:42:03.293Z,7.55
2019-04-04T06:43:10.180Z,7.53
2019-04-04T06:44:11.000Z,7.56
2019-04-04T06:45:15.496Z,7.53
2019-04-04T06:46:21.081Z,7.56
2019-04-04T06:47:25.268Z,7.53
2019-04-04T06:48:27.167Z,7.48
2019-04-04T06:49:29.720Z,7.53
2019-04-04T06:50:30.145Z,7.53
2019-04-04T06:51:30.599Z,7.51
2019-04-04T06:52:31.011Z,7.50
2019-04-04T06:53:31.448Z,7.47
2019-04-04T06:54:31.877Z,7.47
2019-04-04T06:55:32.362Z,7.41
2019-04-04T06:56:32.844Z,7.51
2019-04-04T06:57:34.207Z,7.47
2019-04-04T06:58:39.984Z,7.46
2019-04-04T06:59:43.206Z,7.56
2019-04-04T07:00:48.443Z,7.53
2019-04-04T07:01:52.039Z,7.58
2019-04-04T07:02:55.478Z,7.53
2019-04-04T07:03:59.215Z,7.55
2019-04-04T07:04:59.985Z,7.59
2019-04-04T07:06:00.427Z,7.56
2019-04-04T07:07:00.917Z,7.51
2019-04-04T07:08:01.343Z,7.50
2019-04-04T07:09:01.852Z,7.62
2019-04-04T07:10:02.311Z,7.66
2019-04-04T07:11:04.460Z,7.72
2019-04-04T07:12:20.815Z,7.78
2019-04-04T07:13:21.991Z,7.74
2019-04-04T07:14:21.980Z,7.72
2019-04-04T07:15:22.409Z,7.78
2019-04-04T07:16:31.940Z,7.80
2019-04-04T07:17:32.581Z,7.83
2019-04-04T07:18:33.010Z,7.83
2019-04-04T07:19:33.438Z,7.85
2019-04-04T07:20:33.866Z,7.87
2019-04-04T07:21:34.326Z,7.81
2019-04-04T07:22:34.806Z,7.90
2019-04-04T07:23:35.748Z,7.81
2019-04-04T07:24:36.168Z,7.85
2019-04-04T07:25:39.432Z,7.88
2019-04-04T07:26:41.311Z,7.93
2019-04-04T07:27:41.800Z,7.95
2019-04-04T07:28:42.277Z,7.87
2019-04-04T07:31:20.810Z,7.99
2019-04-04T07:32:21.356Z,7.93
2019-04-04T07:33:21.816Z,7.88
2019-04-04T07:34:30.889Z,7.91
2019-04-04T07:35:31.314Z,7.96
2019-04-04T07:36:49.156Z,7.85
2019-04-04T07:37:56.639Z,7.91
2019-04-04T07:39:25.928Z,7.99
2019-04-04T07:40:26.353Z,8.09
2019-04-04T07:41:45.006Z,8.05
2019-04-04T07:42:48.024Z,8.11
2019-04-04T07:43:51.593Z,8.02
2019-04-04T07:44:54.388Z,8.02
2019-04-04T07:45:59.761Z,8.18
2019-04-04T07:47:02.480Z,8.23
2019-04-04T07:48:02.897Z,8.23
2019-04-04T07:49:03.318Z,8.28
2019-04-04T07:51:30.233Z,8.31
2019-04-04T07:54:40.715Z,8.38
2019-04-04T07:55:42.211Z,8.34
2019-04-04T07:58:52.820Z,8.39
2019-04-04T07:59:54.421Z,8.42
2019-04-04T08:00:54.835Z,8.39
2019-04-04T08:01:57.437Z,8.36
2019-04-04T08:02:57.853Z,8.36
2019-04-04T08:03:59.360Z,8.41
2019-04-04T08:04:59.802Z,8.41
2019-04-04T08:06:00.259Z,8.32
2019-04-04T08:07:00.725Z,8.38
2019-04-04T08:08:01.142Z,8.36
2019-04-04T08:09:01.582Z,8.34
2019-04-04T08:10:02.011Z,8.44
2019-04-04T08:11:02.589Z,8.42
2019-04-04T08:12:03.044Z,8.41
2019-04-04T08:13:03.620Z,8.35
2019-04-04T08:14:04.073Z,8.35
2019-04-04T08:15:04.659Z,8.27
2019-04-04T08:16:05.098Z,8.36
2019-04-04T08:17:05.629Z,8.27
2019-04-04T08:18:06.069Z,8.35
2019-04-04T08:19:06.655Z,8.39
2019-04-04T08:20:07.358Z,8.28
2019-04-04T08:21:07.816Z,8.26
2019-04-04T08:22:08.370Z,8.35
2019-04-04T08:23:08.850Z,8.38
2019-04-04T08:24:09.271Z,8.35
2019-04-04T08:25:09.684Z,8.39
2019-04-04T08:26:10.277Z,8.39
2019-04-04T08:27:10.767Z,8.34
2019-04-04T08:28:11.215Z,8.36
2019-04-04T08:29:11.631Z,8.36
2019-04-04T08:30:12.077Z,8.38
2019-04-04T08:31:12.498Z,8.38
2019-04-04T08:32:12.938Z,8.38
2019-04-04T08:33:13.364Z,8.41
2019-04-04T08:34:13.776Z,8.44
2019-04-04T08:35:14.190Z,8.39
2019-04-04T08:36:14.611Z,8.39
2019-04-04T08:37:15.055Z,8.54
2019-04-04T08:38:15.439Z,8.36
2019-04-04T08:39:15.871Z,8.50
2019-04-04T08:40:16.406Z,8.53
2019-04-04T08:41:16.824Z,8.60
2019-04-04T08:42:17.346Z,8.57
2019-04-04T08:43:17.759Z,8.72
2019-04-04T08:44:18.181Z,8.69
2019-04-04T08:45:18.610Z,8.72
2019-04-04T08:46:20.030Z,8.75
2019-04-04T08:47:20.659Z,8.81
2019-04-04T08:48:21.274Z,8.89
2019-04-04T08:49:21.699Z,8.92
2019-04-04T08:50:22.132Z,8.95
2019-04-04T08:51:22.589Z,8.93
2019-04-04T08:52:23.059Z,8.97
2019-04-04T08:53:23.488Z,8.96
2019-04-04T08:54:23.924Z,8.89
2019-04-04T08:55:24.349Z,8.92
2019-04-04T08:56:24.777Z,8.93
2019-04-04T08:57:25.221Z,9.03
2019-04-04T08:58:25.649Z,9.00
2019-04-04T08:59:26.268Z,8.99
2019-04-04T09:00:27.586Z,8.97
2019-04-04T09:01:28.075Z,9.02
2019-04-04T09:02:28.522Z,8.93
2019-04-04T09:03:35.883Z,8.93
2019-04-04T09:04:36.323Z,8.92
2019-04-04T09:05:36.743Z,8.92
2019-04-04T09:06:37.198Z,8.89
2019-04-04T09:07:39.727Z,8.96
2019-04-04T09:08:40.152Z,9.02
2019-04-04T09:11:18.773Z,8.95
2019-04-04T09:12:24.107Z,8.99
2019-04-04T09:13:24.543Z,9.00
2019-04-04T09:14:24.974Z,8.96
2019-04-04T09:15:26.567Z,9.00
2019-04-04T09:16:26.993Z,8.97
2019-04-04T09:17:27.426Z,9.11
2019-04-04T09:18:35.874Z,9.02
2019-04-04T09:19:36.356Z,9.21
2019-04-04T09:20:36.776Z,9.29
2019-04-04T09:21:37.337Z,9.15
2019-04-04T09:22:37.781Z,9.29
2019-04-04T09:23:46.948Z,9.37
2019-04-04T09:24:47.381Z,9.44
2019-04-04T09:25:49.949Z,9.49
2019-04-04T09:26:50.410Z,9.54
2019-04-04T09:27:50.855Z,9.47
2019-04-04T09:28:51.290Z,9.59
2019-04-04T09:29:51.715Z,9.58
2019-04-04T09:30:52.141Z,9.56
2019-04-04T09:31:52.585Z,9.58
2019-04-04T09:32:53.032Z,9.49
2019-04-04T09:33:53.458Z,9.42
2019-04-04T09:34:53.881Z,9.42
2019-04-04T09:35:54.376Z,9.48
2019-04-04T09:36:54.809Z,9.39
2019-04-04T09:37:56.488Z,9.45
2019-04-04T09:38:56.925Z,9.45
2019-04-04T09:39:58.411Z,9.39
2019-04-04T09:40:58.836Z,9.47
2019-04-04T09:42:01.381Z,9.54
2019-04-04T09:43:01.836Z,9.59
2019-04-04T09:44:02.310Z,9.69
2019-04-04T09:45:02.746Z,9.73
2019-04-04T09:46:03.166Z,9.82
2019-04-04T09:47:05.654Z,9.91
2019-04-04T09:48:06.369Z,9.91
2019-04-04T09:50:22.286Z,9.81
2019-04-04T09:51:31.344Z,9.80
2019-04-04T09:52:31.774Z,9.81
2019-04-04T09:53:53.415Z,9.70
2019-04-04T09:54:53.893Z,9.62
2019-04-04T09:55:54.312Z,9.66
2019-04-04T09:57:09.270Z,9.66
2019-04-04T09:58:09.707Z,9.74
2019-04-04T09:59:16.858Z,9.76
2019-04-04T10:00:17.300Z,9.76
2019-04-04T10:01:24.381Z,9.67
2019-04-04T10:02:24.813Z,9.67
2019-04-04T10:03:25.247Z,9.67
2019-04-04T10:04:27.747Z,9.64
2019-04-04T10:05:28.161Z,9.59
2019-04-04T10:06:28.680Z,9.62
2019-04-04T10:07:29.140Z,9.48
2019-04-04T10:08:34.873Z,9.42
2019-04-04T10:09:35.322Z,9.48
2019-04-04T10:10:35.745Z,9.47
2019-04-04T10:11:37.237Z,9.40
2019-04-04T10:12:37.695Z,9.36
2019-04-04T10:13:38.240Z,9.47
2019-04-04T10:14:38.662Z,9.49
2019-04-04T10:15:39.190Z,9.48
2019-04-04T10:16:39.604Z,9.40
2019-04-04T10:17:41.256Z,9.36
2019-04-04T10:18:41.682Z,9.30
2019-04-04T10:19:44.235Z,9.24
2019-04-04T10:20:44.659Z,9.27
2019-04-04T10:21:45.171Z,9.22
2019-04-04T10:22:45.598Z,9.22
2019-04-04T10:23:46.140Z,9.26
2019-04-04T10:24:46.571Z,9.16
2019-04-04T10:25:49.089Z,9.22
2019-04-04T10:26:49.507Z,9.24
2019-04-04T10:27:50.090Z,9.34
2019-04-04T10:28:50.520Z,9.33
2019-04-04T10:29:51.060Z,9.27
2019-04-04T10:30:51.492Z,9.24
2019-04-04T10:31:53.333Z,9.18
2019-04-04T10:32:53.793Z,9.18
2019-04-04T10:33:55.287Z,9.13
2019-04-04T10:34:55.714Z,9.08
2019-04-04T10:36:02.801Z,9.03
2019-04-04T10:37:03.219Z,9.11
2019-04-04T10:38:11.373Z,9.12
2019-04-04T10:39:11.793Z,9.19
2019-04-04T10:40:13.350Z,9.11
2019-04-04T10:41:13.783Z,9.19
2019-04-04T10:42:16.352Z,9.15
2019-04-04T10:43:16.784Z,9.26
2019-04-04T10:44:17.287Z,9.31
2019-04-04T10:45:17.716Z,9.37
2019-04-04T10:46:18.168Z,9.37
2019-04-04T10:47:18.591Z,9.52
2019-04-04T10:48:19.048Z,9.51
2019-04-04T10:49:19.565Z,9.59
2019-04-04T10:50:20.324Z,9.66
2019-04-04T10:51:21.113Z,9.63
2019-04-04T10:52:21.546Z,9.76
2019-04-04T10:53:24.151Z,9.88
2019-04-04T10:54:24.623Z,9.74
2019-04-04T10:55:25.128Z,9.84
2019-04-04T10:56:25.589Z,9.91
2019-04-04T10:57:26.171Z,9.80
2019-04-04T10:58:26.611Z,9.81
2019-04-04T10:59:33.866Z,9.85
2019-04-04T11:00:34.292Z,9.88
2019-04-04T11:01:41.655Z,9.90
2019-04-04T11:02:42.365Z,9.91
2019-04-04T11:03:42.962Z,9.92
2019-04-04T11:04:43.715Z,9.88
2019-04-04T11:05:53.361Z,9.91
2019-04-04T11:06:53.822Z,9.88
2019-04-04T11:07:56.898Z,9.90
2019-04-04T11:08:57.471Z,9.85
2019-04-04T11:09:59.055Z,9.88
2019-04-04T11:10:59.515Z,10.00
2019-04-04T11:12:01.079Z,9.97
2019-04-04T11:13:03.003Z,10.02
2019-04-04T11:14:05.740Z,10.02
2019-04-04T11:15:06.177Z,10.15
2019-04-04T11:16:06.734Z,10.25
2019-04-04T11:17:07.160Z,10.28
2019-04-04T11:18:07.583Z,10.39
2019-04-04T11:19:09.753Z,10.57
2019-04-04T11:20:10.303Z,10.67
2019-04-04T11:21:10.721Z,10.72
2019-04-04T11:22:12.520Z,10.92
2019-04-04T11:23:12.950Z,10.94
2019-04-04T11:24:13.394Z,10.97
2019-04-04T11:25:13.820Z,10.97
2019-04-04T11:26:14.267Z,10.84
2019-04-04T11:27:17.409Z,10.76
2019-04-04T11:28:18.110Z,10.65
2019-04-04T11:29:18.673Z,10.68
2019-04-04T11:30:19.096Z,10.67
2019-04-04T11:31:19.679Z,10.58
2019-04-04T11:32:20.110Z,10.46
2019-04-04T11:33:20.715Z,10.42
2019-04-04T11:34:21.156Z,10.36
2019-04-04T11:35:21.830Z,10.36
2019-04-04T11:36:22.269Z,10.33
2019-04-04T11:37:23.307Z,10.30
2019-04-04T11:38:23.726Z,10.20
2019-04-04T11:39:27.372Z,10.17
2019-04-04T11:40:27.792Z,10.12
2019-04-04T11:41:28.206Z,10.03
2019-04-04T11:42:28.631Z,10.02
2019-04-04T11:43:29.047Z,10.02
2019-04-04T11:44:30.856Z,9.94
2019-04-04T11:45:31.378Z,9.91
2019-04-04T11:46:31.962Z,9.87
2019-04-04T11:47:32.376Z,9.92
2019-04-04T11:48:33.001Z,9.88
2019-04-04T11:49:33.441Z,9.80
2019-04-04T11:50:33.866Z,9.80
2019-04-04T11:51:34.279Z,9.82
2019-04-04T11:52:34.875Z,9.70
2019-04-04T11:53:35.300Z,9.67
2019-04-04T11:54:35.945Z,9.70
2019-04-04T11:55:36.365Z,9.66
2019-04-04T11:56:36.990Z,9.67
2019-04-04T11:57:37.413Z,9.69
2019-04-04T11:58:37.992Z,9.72
2019-04-04T11:59:38.435Z,9.67
2019-04-04T12:00:38.855Z,9.64
2019-04-04T12:01:39.327Z,9.66
2019-04-04T12:02:39.747Z,9.62
2019-04-04T12:03:40.173Z,9.72
2019-04-04T12:04:40.625Z,9.74
2019-04-04T12:05:41.209Z,9.72
2019-04-04T12:06:41.633Z,9.76
2019-04-04T12:07:42.056Z,9.81
2019-04-04T12:08:42.508Z,9.85
2019-04-04T12:09:42.949Z,9.81
2019-04-04T12:10:43.361Z,9.91
2019-04-04T12:11:43.783Z,9.82
2019-04-04T12:12:44.207Z,9.94
2019-04-04T12:13:44.630Z,9.76
2019-04-04T12:14:45.058Z,9.88
2019-04-04T12:15:45.493Z,9.82
2019-04-04T12:16:45.925Z,9.88
2019-04-04T12:17:46.354Z,9.99
2019-04-04T12:18:46.773Z,9.90
2019-04-04T12:19:47.214Z,9.95
2019-04-04T12:20:47.676Z,9.88
2019-04-04T12:21:48.104Z,9.99
2019-04-04T12:22:48.519Z,9.97
2019-04-04T12:23:51.336Z,10.10
2019-04-04T12:24:52.080Z,10.13
2019-04-04T12:25:52.500Z,10.20
2019-04-04T12:26:52.926Z,10.15
2019-04-04T12:27:53.345Z,10.12
2019-04-04T12:28:53.760Z,10.15
2019-04-04T12:29:54.191Z,10.18
2019-04-04T12:30:54.625Z,10.21
2019-04-04T12:31:55.041Z,10.31
2019-04-04T12:32:55.455Z,10.30
2019-04-04T12:33:56.067Z,10.28
2019-04-04T12:34:57.110Z,10.21
2019-04-04T12:35:57.584Z,10.13
2019-04-04T12:36:58.003Z,10.06
2019-04-04T12:37:58.426Z,10.07
2019-04-04T12:38:58.840Z,10.02
2019-04-04T12:39:59.282Z,10.02
2019-04-04T12:40:59.718Z,10.00
2019-04-04T12:42:00.135Z,9.87
2019-04-04T12:43:00.551Z,9.88
2019-04-04T12:44:00.986Z,9.90
2019-04-04T12:45:01.444Z,9.94
2019-04-04T12:46:01.860Z,9.80
2019-04-04T12:47:02.302Z,9.84
2019-04-04T12:48:02.726Z,9.84
2019-04-04T12:49:03.252Z,9.99
2019-04-04T12:50:03.684Z,10.03
2019-04-04T12:51:06.246Z,10.09
2019-04-04T12:52:06.675Z,10.07
2019-04-04T12:53:08.200Z,10.15
2019-04-04T12:54:08.651Z,10.15
2019-04-04T12:55:10.194Z,10.15
2019-04-04T12:56:10.618Z,10.05
2019-04-04T12:57:12.220Z,10.00
2019-04-04T12:58:12.654Z,9.95
2019-04-04T12:59:13.071Z,9.82
2019-04-04T13:00:18.478Z,9.97
2019-04-04T13:01:21.105Z,10.00
2019-04-04T13:02:21.921Z,10.07
2019-04-04T13:03:30.386Z,10.13
2019-04-04T13:04:32.116Z,10.18
2019-04-04T13:05:47.840Z,10.09
2019-04-04T13:06:48.371Z,10.07
2019-04-04T13:10:10.888Z,10.05
2019-04-04T13:11:14.292Z,10.05
2019-04-04T13:12:14.703Z,10.00
2019-04-04T13:13:22.981Z,9.95
2019-04-04T13:14:23.401Z,10.02
2019-04-04T13:15:43.406Z,9.97
2019-04-04T13:16:43.828Z,10.03
2019-04-04T13:19:59.246Z,10.28
2019-04-04T13:20:59.678Z,10.42
2019-04-04T13:22:00.116Z,10.39
2019-04-04T13:23:00.545Z,10.33
2019-04-04T13:24:00.964Z,10.39
2019-04-04T13:25:01.425Z,10.45
2019-04-04T13:26:01.857Z,10.53
2019-04-04T13:27:02.284Z,10.57
2019-04-04T13:28:02.720Z,10.51
2019-04-04T13:29:03.147Z,10.53
2019-04-04T13:30:03.591Z,10.55
2019-04-04T13:31:04.042Z,10.58
2019-04-04T13:32:04.495Z,10.55
2019-04-04T13:33:04.929Z,10.46
2019-04-04T13:34:05.648Z,10.43
2019-04-04T13:35:06.124Z,10.49
2019-04-04T13:36:06.570Z,10.34
2019-04-04T13:37:07.003Z,10.38
2019-04-04T13:38:07.429Z,10.28
2019-04-04T13:39:08.020Z,10.21
2019-04-04T13:40:08.459Z,10.17
2019-04-04T13:41:20.996Z,10.05
2019-04-04T13:42:32.395Z,10.07
2019-04-04T13:43:32.909Z,9.94
2019-04-04T13:44:33.338Z,9.90
2019-04-04T13:45:34.261Z,9.87
2019-04-04T13:46:34.689Z,9.85
2019-04-04T13:47:38.107Z,9.74
2019-04-04T13:48:43.306Z,9.77
2019-04-04T13:49:44.519Z,9.76
2019-04-04T13:54:19.641Z,10.80
2019-04-04T13:55:20.831Z,11.15
2019-04-04T13:56:21.421Z,11.40
2019-04-04T13:57:21.995Z,11.81
2019-04-04T13:58:22.979Z,12.25
2019-04-04T13:59:23.642Z,12.54
2019-04-04T14:00:24.228Z,12.83
2019-04-04T14:02:34.819Z,13.71
2019-04-04T14:03:35.453Z,14.11